Time;durP1;ratioP1;P1;durP2;ratioP2;P2;SDS_P1;SDS_P2;PMS_P1;PMS_P2;Temp;Humidity;BMP_temperature;BMP_pressure;BME280_temperature;BME280_humidity;BME280_pressure;Samples;Min_cycle;Max_cycle;Signal;HPM_P1;HPM_P2
2021/11/19 00:00:51;;;;;;;9.32;1.98;;;27.00;93.50;;;;;;5043843;28;20071;-73
2021/11/19 00:03:19;;;;;;;3.88;1.33;;;27.70;92.20;;;;;;5046458;28;20079;-72
2021/11/19 00:05:48;;;;;;;2.65;0.85;;;28.00;91.10;;;;;;5040790;28;20460;-72
2021/11/19 00:08:17;;;;;;;3.53;1.30;;;28.30;88.40;;;;;;5043393;28;20128;-72
2021/11/19 00:10:44;;;;;;;2.55;1.20;;;28.20;87.30;;;;;;5044175;28;20403;-71
2021/11/19 00:13:12;;;;;;;5.90;1.52;;;28.20;85.50;;;;;;5047480;28;20159;-72
2021/11/19 00:15:39;;;;;;;4.20;2.35;;;28.60;87.10;;;;;;5045172;28;20052;-73
2021/11/19 00:18:07;;;;;;;4.05;1.05;;;29.10;84.60;;;;;;5049118;28;20023;-71
2021/11/19 00:20:35;;;;;;;2.22;1.10;;;29.50;77.60;;;;;;5046538;28;20537;-71
2021/11/19 00:23:05;;;;;;;3.15;1.10;;;29.80;77.30;;;;;;5046299;28;20128;-71
2021/11/19 00:25:34;;;;;;;1.80;0.35;;;30.10;76.00;;;;;;5039588;28;20049;-70
2021/11/19 00:28:02;;;;;;;3.45;0.50;;;29.80;71.10;;;;;;5039942;28;20542;-73
2021/11/19 00:30:31;;;;;;;2.50;0.90;;;29.80;70.70;;;;;;5038955;28;20057;-72
2021/11/19 00:32:59;;;;;;;2.17;0.40;;;29.80;74.90;;;;;;5046890;28;20064;-69
2021/11/19 00:35:30;;;;;;;3.50;1.17;;;30.10;69.80;;;;;;5040672;28;20475;-70
2021/11/19 00:37:58;;;;;;;1.17;0.40;;;30.50;69.10;;;;;;5051820;28;20110;-73
2021/11/19 00:40:36;;;;;;;1.58;0.65;;;30.50;70.80;;;;;;5046717;28;20499;-72
2021/11/19 00:43:05;;;;;;;2.92;0.50;;;30.40;64.80;;;;;;5040112;28;20029;-71
2021/11/19 00:45:33;;;;;;;2.35;0.20;;;30.60;64.70;;;;;;5040079;28;20063;-72
2021/11/19 00:48:01;;;;;;;2.78;0.40;;;30.70;64.80;;;;;;5049087;28;20021;-71
2021/11/19 00:50:38;;;;;;;3.08;0.75;;;30.80;65.80;;;;;;5044662;28;20025;-71
2021/11/19 00:53:07;;;;;;;8.50;0.75;;;30.80;64.30;;;;;;5040582;28;20224;-70
2021/11/19 00:55:35;;;;;;;1.85;0.43;;;30.80;65.90;;;;;;5035207;28;20491;-71
2021/11/19 00:58:04;;;;;;;5.80;0.65;;;31.00;65.40;;;;;;5047463;28;20063;-72
2021/11/19 01:00:36;;;;;;;3.83;0.45;;;31.30;64.30;;;;;;5045602;28;20354;-70
2021/11/19 01:03:04;;;;;;;1.55;0.30;;;31.30;64.00;;;;;;5034056;28;20037;-72
2021/11/19 01:05:32;;;;;;;3.03;0.40;;;31.40;62.90;;;;;;5038162;28;20152;-72
2021/11/19 01:07:59;;;;;;;2.97;0.45;;;31.50;64.40;;;;;;5047796;28;20061;-74
2021/11/19 01:10:31;;;;;;;0.52;0.20;;;31.60;61.40;;;;;;5039731;28;20087;-73
2021/11/19 01:12:59;;;;;;;4.38;0.30;;;31.50;62.80;;;;;;5037017;28;20053;-74
2021/11/19 01:15:32;;;;;;;1.75;0.32;;;31.70;61.90;;;;;;5039723;28;20029;-76
2021/11/19 01:18:21;;;;;;;3.60;0.43;;;31.90;60.70;;;;;;5047617;28;20041;-77
2021/11/19 01:20:57;;;;;;;0.70;0.20;;;32.00;60.70;;;;;;5043011;28;20172;-76
2021/11/19 01:23:27;;;;;;;3.78;0.50;;;32.20;57.10;;;;;;5045260;28;20029;-76
2021/11/19 01:25:58;;;;;;;1.13;0.10;;;32.40;56.60;;;;;;5047613;28;20802;-77
2021/11/19 01:28:27;;;;;;;1.65;0.20;;;32.30;57.50;;;;;;5055676;28;20079;-77
2021/11/19 01:31:02;;;;;;;3.08;0.15;;;32.30;56.00;;;;;;5043501;28;20048;-75
2021/11/19 01:33:30;;;;;;;2.10;0.30;;;32.40;56.70;;;;;;5043932;28;20413;-76
2021/11/19 01:35:57;;;;;;;2.05;0.30;;;32.50;58.00;;;;;;5042716;28;20044;-75
2021/11/19 01:38:26;;;;;;;0.80;0.20;;;32.50;58.70;;;;;;5046688;28;21412;-76
2021/11/19 01:40:58;;;;;;;0.65;0.25;;;32.30;59.00;;;;;;5045700;28;20913;-75
2021/11/19 01:43:26;;;;;;;1.52;0.28;;;32.60;57.80;;;;;;5041027;28;20087;-75
2021/11/19 01:46:01;;;;;;;3.53;0.30;;;32.60;59.80;;;;;;5043896;28;20099;-74
2021/11/19 01:48:39;;;;;;;1.17;0.22;;;32.40;58.90;;;;;;5049837;28;20029;-75
2021/11/19 01:51:24;;;;;;;5.35;0.50;;;32.50;60.00;;;;;;5044687;28;20417;-77
2021/11/19 01:54:04;;;;;;;2.03;0.40;;;32.40;59.00;;;;;;5049438;28;20422;-76
2021/11/19 01:56:41;;;;;;;3.00;0.25;;;32.40;58.20;;;;;;5044737;28;20025;-76
2021/11/19 01:59:25;;;;;;;6.03;0.60;;;32.50;58.50;;;;;;5042073;28;20033;-79
2021/11/19 02:01:57;;;;;;;2.00;0.40;;;32.80;59.70;;;;;;5043897;28;20033;-77
2021/11/19 02:04:30;;;;;;;2.92;0.50;;;33.00;59.40;;;;;;5044783;28;20021;-72
2021/11/19 02:07:06;;;;;;;2.42;0.43;;;33.10;59.10;;;;;;5038081;28;20376;-75
2021/11/19 02:10:07;;;;;;;3.92;0.68;;;32.90;57.60;;;;;;5043135;28;20048;-78
2021/11/19 02:12:58;;;;;;;1.48;0.30;;;32.70;58.90;;;;;;5045528;28;20123;-77
2021/11/19 02:15:36;;;;;;;1.13;0.30;;;32.70;60.10;;;;;;5040640;28;20361;-75
2021/11/19 02:18:12;;;;;;;2.20;0.30;;;32.50;59.40;;;;;;5045667;28;20021;-76
2021/11/19 02:20:43;;;;;;;0.85;0.45;;;32.70;58.40;;;;;;5037156;28;20022;-72
2021/11/19 02:23:36;;;;;;;3.53;0.45;;;32.80;58.20;;;;;;5042146;28;20027;-74
2021/11/19 02:26:18;;;;;;;1.48;0.65;;;32.90;57.90;;;;;;5041905;28;20024;-78
2021/11/19 02:28:48;;;;;;;1.65;0.32;;;32.40;57.70;;;;;;5041492;28;20074;-73
2021/11/19 02:31:20;;;;;;;2.38;0.50;;;32.40;58.40;;;;;;5049536;28;20408;-76
2021/11/19 02:33:51;;;;;;;7.38;0.90;;;32.60;58.50;;;;;;5046559;28;20037;-76
2021/11/19 02:36:25;;;;;;;0.95;0.20;;;32.90;57.80;;;;;;5045001;28;20076;-76
2021/11/19 02:38:54;;;;;;;6.22;0.40;;;32.90;57.60;;;;;;5040151;28;20063;-73
2021/11/19 02:41:25;;;;;;;2.60;0.40;;;32.70;55.40;;;;;;5044329;28;20115;-74
2021/11/19 02:44:10;;;;;;;2.67;0.57;;;32.70;56.10;;;;;;5043629;28;20475;-75
2021/11/19 02:46:41;;;;;;;2.10;0.23;;;32.50;57.00;;;;;;5036838;28;20387;-76
2021/11/19 02:49:09;;;;;;;2.10;0.60;;;32.30;57.50;;;;;;5038714;28;20362;-76
2021/11/19 02:51:37;;;;;;;2.78;0.60;;;32.40;59.60;;;;;;5043058;28;20526;-75
2021/11/19 02:54:07;;;;;;;1.08;0.50;;;32.90;58.00;;;;;;5036253;28;20041;-76
2021/11/19 02:56:35;;;;;;;1.20;1.05;;;33.00;57.60;;;;;;5045722;28;20059;-75
2021/11/19 02:59:04;;;;;;;1.15;0.32;;;33.10;58.10;;;;;;5039696;28;20052;-75
2021/11/19 03:01:37;;;;;;;1.63;0.38;;;32.90;57.70;;;;;;5043761;28;20022;-72
2021/11/19 03:04:05;;;;;;;3.05;0.40;;;32.90;59.10;;;;;;5036995;28;20108;-74
2021/11/19 03:06:35;;;;;;;0.93;0.20;;;32.90;59.10;;;;;;5042270;28;20021;-74
2021/11/19 03:09:03;;;;;;;1.15;0.40;;;33.00;58.10;;;;;;5040258;28;20037;-73
2021/11/19 03:11:30;;;;;;;2.83;1.02;;;33.20;59.60;;;;;;5038399;28;20115;-75
2021/11/19 03:13:58;;;;;;;1.02;0.22;;;33.40;58.90;;;;;;5035238;28;20033;-75
2021/11/19 03:16:27;;;;;;;2.22;0.28;;;33.30;59.90;;;;;;5043368;28;20694;-73
2021/11/19 03:18:54;;;;;;;0.55;0.30;;;33.30;59.50;;;;;;5039338;28;20664;-78
2021/11/19 03:21:23;;;;;;;2.60;0.65;;;33.00;60.20;;;;;;5040966;28;20139;-75
2021/11/19 03:23:54;;;;;;;3.58;0.63;;;33.00;60.30;;;;;;5036972;28;20075;-74
2021/11/19 03:26:22;;;;;;;5.43;0.52;;;32.80;59.80;;;;;;5036316;28;20114;-73
2021/11/19 03:28:49;;;;;;;0.68;0.50;;;32.60;61.10;;;;;;5038677;28;20560;-76
2021/11/19 03:31:17;;;;;;;1.13;0.57;;;32.60;61.10;;;;;;5037565;28;20053;-74
2021/11/19 03:33:47;;;;;;;2.53;0.50;;;32.40;60.80;;;;;;5041501;28;20120;-71
2021/11/19 03:36:17;;;;;;;0.93;0.40;;;31.90;60.60;;;;;;5034702;28;20045;-78
2021/11/19 03:38:47;;;;;;;0.60;0.30;;;31.60;62.10;;;;;;5037478;28;20108;-75
2021/11/19 03:41:18;;;;;;;0.73;0.63;;;31.60;62.70;;;;;;5036416;28;20152;-75
2021/11/19 03:43:59;;;;;;;1.73;0.47;;;31.40;63.00;;;;;;5040839;28;20429;-77
2021/11/19 03:46:33;;;;;;;2.10;0.52;;;31.40;63.00;;;;;;5037094;28;20109;-74
2021/11/19 03:49:01;;;;;;;1.67;0.20;;;31.30;62.20;;;;;;5039780;28;20434;-75
2021/11/19 03:51:34;;;;;;;1.75;0.57;;;31.10;61.80;;;;;;5036421;28;20043;-76
2021/11/19 03:54:01;;;;;;;3.20;0.40;;;31.20;63.60;;;;;;5038354;28;20043;-76
2021/11/19 03:56:29;;;;;;;3.92;1.10;;;31.30;64.60;;;;;;5036260;28;20063;-74
2021/11/19 03:58:57;;;;;;;7.57;2.28;;;31.30;64.20;;;;;;5036441;28;20499;-76
2021/11/19 04:01:28;;;;;;;2.78;0.73;;;31.10;64.40;;;;;;5037244;28;20116;-74
2021/11/19 04:03:57;;;;;;;5.32;0.95;;;31.00;64.50;;;;;;5039112;28;20025;-73
2021/11/19 04:06:25;;;;;;;0.68;0.10;;;31.10;65.10;;;;;;5041087;28;20074;-73
2021/11/19 04:08:53;;;;;;;2.15;1.15;;;31.10;64.40;;;;;;5034233;28;20476;-74
2021/11/19 04:11:22;;;;;;;1.45;0.90;;;31.20;63.90;;;;;;5033883;28;20400;-71
2021/11/19 04:13:50;;;;;;;1.05;0.32;;;30.90;64.40;;;;;;5039397;28;20033;-75
2021/11/19 04:16:23;;;;;;;1.25;0.50;;;30.60;65.10;;;;;;5036580;28;20025;-74
2021/11/19 04:18:51;;;;;;;2.17;0.32;;;30.60;65.60;;;;;;5038214;28;20040;-75
2021/11/19 04:21:20;;;;;;;1.42;0.52;;;30.70;65.50;;;;;;5038365;28;20708;-73
2021/11/19 04:23:51;;;;;;;1.60;0.28;;;30.70;65.10;;;;;;5038984;28;20144;-74
2021/11/19 04:26:22;;;;;;;1.98;0.25;;;30.80;65.60;;;;;;5041165;28;21021;-73
2021/11/19 04:28:50;;;;;;;1.17;1.02;;;30.70;65.40;;;;;;5037253;28;20081;-72
2021/11/19 04:31:19;;;;;;;1.83;0.30;;;30.70;66.30;;;;;;5037049;28;20479;-78
2021/11/19 04:33:48;;;;;;;2.55;0.30;;;30.50;66.20;;;;;;5047509;28;20033;-79
2021/11/19 04:36:16;;;;;;;1.13;0.30;;;30.50;65.80;;;;;;5042936;28;20025;-75
2021/11/19 04:38:44;;;;;;;2.80;0.43;;;30.40;65.80;;;;;;5042431;28;20040;-75
2021/11/19 04:41:13;;;;;;;2.80;0.25;;;30.30;66.30;;;;;;5036524;28;20665;-73
2021/11/19 04:43:40;;;;;;;2.17;0.22;;;30.20;66.80;;;;;;5037449;28;20464;-77
2021/11/19 04:46:09;;;;;;;1.42;0.30;;;30.00;67.00;;;;;;5040675;28;20047;-77
2021/11/19 04:48:38;;;;;;;0.80;0.32;;;29.90;67.80;;;;;;5037697;28;20021;-75
2021/11/19 04:51:09;;;;;;;4.65;0.45;;;30.00;68.00;;;;;;5040060;28;20096;-79
2021/11/19 04:53:37;;;;;;;6.85;1.70;;;29.90;67.60;;;;;;5039978;28;20036;-74
2021/11/19 04:56:07;;;;;;;1.55;0.40;;;29.90;67.50;;;;;;5036460;28;20041;-77
2021/11/19 04:58:35;;;;;;;3.85;0.57;;;29.90;68.30;;;;;;5036284;28;20376;-72
2021/11/19 05:01:12;;;;;;;1.13;0.35;;;29.80;68.60;;;;;;5038273;28;20036;-75
2021/11/19 05:03:40;;;;;;;4.40;1.00;;;29.80;64.70;;;;;;5034175;28;20602;-74
2021/11/19 05:06:08;;;;;;;1.23;0.35;;;29.70;68.20;;;;;;5044581;28;20025;-75
2021/11/19 05:08:35;;;;;;;3.70;0.40;;;29.70;68.60;;;;;;5042073;28;20083;-76
2021/11/19 05:11:05;;;;;;;2.78;0.73;;;29.60;69.30;;;;;;5043568;28;20021;-74
2021/11/19 05:13:35;;;;;;;3.80;0.50;;;29.70;68.80;;;;;;5034376;28;20391;-74
2021/11/19 05:16:04;;;;;;;3.28;0.55;;;29.70;67.10;;;;;;5040498;28;20037;-73
2021/11/19 05:18:32;;;;;;;4.45;0.57;;;29.70;68.20;;;;;;5035965;28;20383;-74
2021/11/19 05:21:00;;;;;;;1.88;0.45;;;29.70;69.30;;;;;;5036325;28;20028;-71
2021/11/19 05:23:29;;;;;;;1.25;0.30;;;29.60;68.90;;;;;;5039788;28;20043;-73
2021/11/19 05:25:56;;;;;;;2.25;0.40;;;29.50;70.00;;;;;;5044836;28;20040;-74
2021/11/19 05:28:25;;;;;;;3.78;0.40;;;29.40;69.80;;;;;;5040734;28;20632;-74
2021/11/19 05:30:53;;;;;;;2.10;0.25;;;29.40;70.60;;;;;;5038981;28;20049;-71
2021/11/19 05:33:25;;;;;;;0.93;0.50;;;29.30;70.20;;;;;;5038704;28;20495;-77
2021/11/19 05:35:52;;;;;;;2.88;0.40;;;29.30;70.40;;;;;;5023849;28;20764;-74
2021/11/19 05:38:23;;;;;;;1.13;0.40;;;29.20;70.20;;;;;;5032668;28;20553;-75
2021/11/19 05:40:51;;;;;;;1.40;0.55;;;29.10;70.90;;;;;;5035235;28;20268;-75
2021/11/19 05:43:18;;;;;;;2.30;0.22;;;29.00;70.80;;;;;;5032330;28;20487;-74
2021/11/19 05:45:46;;;;;;;1.05;0.68;;;29.00;70.90;;;;;;5034505;28;20500;-73
2021/11/19 05:48:13;;;;;;;3.50;0.77;;;29.00;71.00;;;;;;5037961;28;20048;-75
2021/11/19 05:50:43;;;;;;;2.85;0.38;;;28.90;71.20;;;;;;5037591;28;20033;-74
2021/11/19 05:53:11;;;;;;;4.18;1.25;;;28.80;71.70;;;;;;5035705;28;21655;-76
2021/11/19 05:55:42;;;;;;;0.70;0.43;;;28.80;72.00;;;;;;5038453;28;20032;-74
2021/11/19 05:58:10;;;;;;;1.02;0.40;;;28.80;72.00;;;;;;5039107;28;20028;-74
2021/11/19 06:00:44;;;;;;;2.80;0.50;;;28.80;71.30;;;;;;5036997;28;20372;-75
2021/11/19 06:03:12;;;;;;;1.77;0.73;;;28.80;71.20;;;;;;5040949;28;20482;-75
2021/11/19 06:05:39;;;;;;;2.67;0.70;;;28.80;70.90;;;;;;5036894;28;20550;-71
2021/11/19 06:08:07;;;;;;;2.15;0.40;;;28.80;71.20;;;;;;5038134;28;20032;-76
2021/11/19 06:10:41;;;;;;;0.73;0.40;;;28.80;71.60;;;;;;5048206;28;20063;-75
2021/11/19 06:13:14;;;;;;;1.63;0.30;;;28.80;71.10;;;;;;5048424;28;20033;-73
2021/11/19 06:15:52;;;;;;;3.92;0.82;;;28.80;71.50;;;;;;5041835;28;20454;-75
2021/11/19 06:18:24;;;;;;;1.75;0.40;;;28.80;70.50;;;;;;5039362;28;20032;-71
2021/11/19 06:20:55;;;;;;;2.85;0.63;;;28.80;70.50;;;;;;5047979;28;20029;-76
2021/11/19 06:23:31;;;;;;;4.22;1.13;;;28.80;70.50;;;;;;5048646;28;20542;-76
2021/11/19 06:26:00;;;;;;;2.25;0.30;;;28.80;70.60;;;;;;5048976;28;20502;-74
2021/11/19 06:28:30;;;;;;;2.05;0.40;;;28.80;71.00;;;;;;5040766;28;21953;-75
2021/11/19 06:30:59;;;;;;;1.83;0.60;;;28.80;71.40;;;;;;5050504;28;20045;-72
2021/11/19 06:33:27;;;;;;;1.10;0.57;;;28.80;71.80;;;;;;5044656;28;20364;-75
2021/11/19 06:35:54;;;;;;;1.90;1.23;;;28.80;71.70;;;;;;5050659;28;20029;-73
2021/11/19 06:38:22;;;;;;;10.38;1.02;;;28.80;72.60;;;;;;5044638;28;20029;-73
2021/11/19 06:40:49;;;;;;;7.03;1.70;;;28.70;72.50;;;;;;5050493;28;20090;-75
2021/11/19 06:43:17;;;;;;;1.63;0.85;;;28.40;73.50;;;;;;5049458;28;20031;-74
2021/11/19 06:45:44;;;;;;;1.80;0.93;;;28.00;74.00;;;;;;5044215;28;20452;-74
2021/11/19 06:48:11;;;;;;;3.97;1.10;;;27.70;74.70;;;;;;5047126;28;20029;-75
2021/11/19 06:50:43;;;;;;;2.53;0.77;;;27.50;75.10;;;;;;5048778;28;20033;-74
2021/11/19 06:53:11;;;;;;;7.63;0.82;;;27.40;74.90;;;;;;5048779;28;20041;-76
2021/11/19 06:55:40;;;;;;;3.92;0.75;;;27.20;75.20;;;;;;5050105;28;20029;-74
2021/11/19 06:58:08;;;;;;;3.58;0.80;;;27.10;75.10;;;;;;5047104;28;20358;-74
2021/11/19 07:00:40;;;;;;;4.82;1.38;;;26.90;75.40;;;;;;5047771;28;20089;-73
2021/11/19 07:03:09;;;;;;;2.78;0.80;;;26.80;76.10;;;;;;5044560;28;20021;-75
2021/11/19 07:05:36;;;;;;;3.75;1.38;;;26.70;76.50;;;;;;5043425;28;20037;-75
2021/11/19 07:08:06;;;;;;;2.67;0.80;;;26.60;76.80;;;;;;5045261;28;20076;-75
2021/11/19 07:10:36;;;;;;;5.75;1.75;;;26.40;77.20;;;;;;5047910;28;20832;-74
2021/11/19 07:13:04;;;;;;;3.92;2.33;;;26.30;77.60;;;;;;5050701;28;20603;-77
2021/11/19 07:15:32;;;;;;;3.53;0.90;;;26.20;77.80;;;;;;5050637;28;20484;-73
2021/11/19 07:18:00;;;;;;;4.95;1.65;;;26.30;77.90;;;;;;5048191;28;20025;-74
2021/11/19 07:20:29;;;;;;;2.85;1.20;;;26.20;78.00;;;;;;5043328;28;20050;-74
2021/11/19 07:22:58;;;;;;;4.65;1.80;;;26.20;78.80;;;;;;5044094;28;20032;-74
2021/11/19 07:25:28;;;;;;;7.75;1.40;;;26.30;78.80;;;;;;5051137;28;20029;-75
2021/11/19 07:27:57;;;;;;;6.45;1.50;;;26.30;79.40;;;;;;5052905;28;20021;-75
2021/11/19 07:30:38;;;;;;;6.28;2.13;;;26.20;79.60;;;;;;5041395;28;20045;-76
2021/11/19 07:33:05;;;;;;;5.35;1.38;;;25.90;80.10;;;;;;5031800;28;20120;-76
2021/11/19 07:35:33;;;;;;;2.20;0.95;;;25.80;80.70;;;;;;5042310;28;20033;-76
2021/11/19 07:38:01;;;;;;;7.30;2.03;;;25.60;81.70;;;;;;5042556;28;20035;-76
2021/11/19 07:40:31;;;;;;;6.22;2.08;;;25.50;81.90;;;;;;5052151;28;20491;-74
2021/11/19 07:42:59;;;;;;;10.40;1.55;;;25.50;82.30;;;;;;5048958;28;20021;-75
2021/11/19 07:45:29;;;;;;;4.80;1.92;;;25.50;83.10;;;;;;5041520;28;20112;-74
2021/11/19 07:47:56;;;;;;;11.60;3.00;;;25.40;83.20;;;;;;5032336;28;20083;-73
2021/11/19 07:50:27;;;;;;;3.25;1.02;;;25.30;83.40;;;;;;5041397;28;20102;-74
2021/11/19 07:52:54;;;;;;;8.93;2.25;;;25.20;84.00;;;;;;5039471;28;20029;-74
2021/11/19 07:55:22;;;;;;;11.88;2.63;;;25.10;84.80;;;;;;5037402;28;20179;-74
2021/11/19 07:57:50;;;;;;;11.45;2.40;;;24.90;85.40;;;;;;5042951;28;20036;-73
2021/11/19 08:00:21;;;;;;;11.13;2.40;;;24.70;86.50;;;;;;5041086;28;20502;-74
2021/11/19 08:02:49;;;;;;;7.57;2.60;;;24.60;87.50;;;;;;5035339;28;20033;-76
2021/11/19 08:05:20;;;;;;;13.68;3.28;;;24.40;88.20;;;;;;5033214;28;20045;-73
2021/11/19 08:07:48;;;;;;;13.52;3.47;;;24.20;89.50;;;;;;5031383;28;20025;-73
2021/11/19 08:10:16;;;;;;;12.68;2.88;;;24.00;90.10;;;;;;5032021;28;20033;-76
2021/11/19 08:12:44;;;;;;;15.60;3.65;;;23.80;90.80;;;;;;5032209;28;20396;-74
2021/11/19 08:15:14;;;;;;;18.45;3.15;;;23.50;91.50;;;;;;5038272;28;20029;-73
2021/11/19 08:17:45;;;;;;;16.20;3.30;;;23.30;92.20;;;;;;5045141;28;20025;-74
2021/11/19 08:20:25;;;;;;;17.00;3.88;;;23.30;92.60;;;;;;5037836;28;20037;-75
2021/11/19 08:22:54;;;;;;;15.30;3.28;;;23.10;93.20;;;;;;5031942;28;20033;-73
2021/11/19 08:25:23;;;;;;;15.18;2.55;;;23.10;93.70;;;;;;5023303;28;20557;-74
2021/11/19 08:27:55;;;;;;;9.43;2.83;;;22.90;94.20;;;;;;5037537;28;20025;-77
2021/11/19 08:30:31;;;;;;;14.57;3.08;;;22.70;94.90;;;;;;5036887;28;20052;-74
2021/11/19 08:33:00;;;;;;;15.68;3.55;;;22.60;95.60;;;;;;5037711;28;20714;-75
2021/11/19 08:35:28;;;;;;;12.23;2.95;;;22.50;96.30;;;;;;5035811;28;20400;-74
2021/11/19 08:37:57;;;;;;;8.70;2.45;;;22.30;97.20;;;;;;5039716;28;20047;-73
2021/11/19 08:40:26;;;;;;;18.45;3.03;;;22.20;98.00;;;;;;5039026;28;20050;-77
2021/11/19 08:42:54;;;;;;;10.45;2.60;;;22.20;98.50;;;;;;5036367;28;20095;-73
2021/11/19 08:45:23;;;;;;;16.88;3.75;;;22.20;98.60;;;;;;5042023;28;20092;-75
2021/11/19 08:47:53;;;;;;;14.18;3.55;;;22.20;98.80;;;;;;5034143;28;20027;-73
2021/11/19 08:50:27;;;;;;;13.00;3.45;;;22.40;98.70;;;;;;5033202;28;20029;-73
2021/11/19 08:52:57;;;;;;;19.38;3.28;;;22.40;98.80;;;;;;5034151;28;20039;-73
2021/11/19 08:55:26;;;;;;;10.32;3.20;;;22.50;98.60;;;;;;5039318;28;20028;-73
2021/11/19 08:57:55;;;;;;;13.65;2.60;;;22.50;98.50;;;;;;5038459;28;20033;-77
2021/11/19 09:00:27;;;;;;;13.57;3.65;;;22.50;98.60;;;;;;5033237;28;20120;-71
2021/11/19 09:02:56;;;;;;;18.13;2.70;;;22.60;98.60;;;;;;5038211;28;20014;-73
2021/11/19 09:05:27;;;;;;;15.77;3.20;;;22.50;98.80;;;;;;5041791;28;20127;-73
2021/11/19 09:07:54;;;;;;;10.30;2.13;;;22.40;99.10;;;;;;5040404;28;20376;-76
2021/11/19 09:10:22;;;;;;;12.57;2.58;;;22.30;99.30;;;;;;5036662;28;20034;-77
2021/11/19 09:12:50;;;;;;;12.05;2.97;;;22.40;99.20;;;;;;5035579;28;20189;-75
2021/11/19 09:15:20;;;;;;;20.33;3.25;;;22.30;99.60;;;;;;5035800;28;20025;-75
2021/11/19 09:18:29;;;;;;;15.85;3.10;;;22.30;99.70;;;;;;5031760;28;20033;-75
2021/11/19 09:21:25;;;;;;;15.40;3.65;;;22.30;99.70;;;;;;5033378;28;20496;-75
2021/11/19 09:24:03;;;;;;;11.52;2.28;;;22.30;99.90;;;;;;5034705;28;20033;-76
2021/11/19 09:26:36;;;;;;;13.07;2.45;;;22.10;99.90;;;;;;5035530;28;20132;-73
2021/11/19 09:29:08;;;;;;;13.43;2.97;;;22.00;99.90;;;;;;5030565;28;20036;-71
2021/11/19 09:31:36;;;;;;;13.73;2.15;;;21.90;99.90;;;;;;5042729;28;20045;-76
2021/11/19 09:34:04;;;;;;;13.23;3.25;;;21.80;99.90;;;;;;5034198;28;20391;-71
2021/11/19 09:36:32;;;;;;;11.60;2.95;;;21.70;99.90;;;;;;5033716;28;20025;-71
2021/11/19 09:39:00;;;;;;;19.42;2.95;;;21.80;99.90;;;;;;5041760;28;20034;-72
2021/11/19 09:41:39;;;;;;;18.42;3.03;;;21.90;99.90;;;;;;5039585;28;20033;-71
2021/11/19 09:44:35;;;;;;;15.27;2.45;;;21.90;99.90;;;;;;5037704;28;20447;-73
2021/11/19 09:47:46;;;;;;;19.75;5.20;;;21.70;99.90;;;;;;5015238;28;20124;-73
2021/11/19 09:50:36;;;;;;;9.32;2.28;;;21.40;99.90;;;;;;4993383;28;20466;-74
2021/11/19 09:53:40;;;;;;;20.90;4.75;;;21.10;99.90;;;;;;5035083;28;21081;-74
2021/11/19 09:56:29;;;;;;;15.50;3.72;;;20.90;99.90;;;;;;5038157;28;20532;-74
2021/11/19 09:59:21;;;;;;;18.60;2.92;;;20.70;99.90;;;;;;5036314;28;20033;-75
2021/11/19 10:02:10;;;;;;;14.32;3.45;;;20.60;99.90;;;;;;5039619;28;20040;-76
2021/11/19 10:04:37;;;;;;;17.70;3.83;;;20.50;99.90;;;;;;5041677;28;20029;-75
2021/11/19 10:07:28;;;;;;;15.80;3.70;;;20.50;99.90;;;;;;5044628;28;20040;-75
2021/11/19 10:10:22;;;;;;;17.35;4.05;;;20.50;99.90;;;;;;5041929;28;20055;-74
2021/11/19 10:12:59;;;;;;;17.60;4.43;;;20.50;99.90;;;;;;5048703;28;20032;-76
2021/11/19 10:15:45;;;;;;;14.60;3.42;;;20.50;99.90;;;;;;5042733;28;20048;-76
2021/11/19 10:18:44;;;;;;;23.97;3.13;;;20.50;99.90;;;;;;5041170;28;20514;-74
2021/11/19 10:21:28;;;;;;;16.02;3.20;;;20.40;99.90;;;;;;5038533;28;20784;-73
2021/11/19 10:24:00;;;;;;;14.35;2.47;;;20.40;99.90;;;;;;5039368;28;20036;-74
2021/11/19 10:26:30;;;;;;;10.95;3.30;;;20.40;99.90;;;;;;5036315;28;20030;-73
2021/11/19 10:29:19;;;;;;;21.15;3.53;;;20.40;99.90;;;;;;5037790;28;20041;-73
2021/11/19 10:31:48;;;;;;;9.55;2.88;;;20.40;99.90;;;;;;5040072;28;20504;-76
2021/11/19 10:34:27;;;;;;;17.35;3.70;;;20.40;99.90;;;;;;5040055;28;20099;-76
2021/11/19 10:37:09;;;;;;;11.45;2.72;;;20.30;99.90;;;;;;5042075;28;20025;-75
2021/11/19 10:40:03;;;;;;;12.50;3.35;;;20.30;99.90;;;;;;5036841;28;20040;-76
2021/11/19 10:42:42;;;;;;;13.95;3.58;;;20.10;99.90;;;;;;5040218;28;20071;-74
2021/11/19 10:45:44;;;;;;;16.58;4.15;;;20.10;99.90;;;;;;5037267;28;20061;-75
2021/11/19 10:48:44;;;;;;;12.43;2.55;;;20.00;99.90;;;;;;5038697;28;20033;-72
2021/11/19 10:51:42;;;;;;;11.13;3.67;;;19.90;99.90;;;;;;5041125;28;20037;-76
2021/11/19 10:54:36;;;;;;;14.82;2.25;;;20.00;99.90;;;;;;5038216;28;20028;-71
2021/11/19 10:57:24;;;;;;;12.50;3.25;;;19.80;99.90;;;;;;5039363;28;20434;-73
2021/11/19 11:00:15;;;;;;;18.63;3.58;;;19.70;99.90;;;;;;5041825;28;20787;-76
2021/11/19 11:02:55;;;;;;;10.45;3.10;;;19.70;99.90;;;;;;5036430;28;20033;-75
2021/11/19 11:05:34;;;;;;;13.02;3.78;;;19.70;99.90;;;;;;5039282;28;20021;-72
2021/11/19 11:08:11;;;;;;;17.15;2.65;;;19.60;99.90;;;;;;5041781;28;20119;-74
2021/11/19 11:10:48;;;;;;;9.80;3.17;;;19.50;99.90;;;;;;5039035;28;20040;-72
2021/11/19 11:13:27;;;;;;;11.93;2.53;;;19.50;99.90;;;;;;5040830;28;20022;-73
2021/11/19 11:15:58;;;;;;;13.85;3.00;;;19.50;99.90;;;;;;5052333;28;20068;-74
2021/11/19 11:18:30;;;;;;;19.30;3.60;;;19.60;99.90;;;;;;5044584;28;20029;-75
2021/11/19 11:21:36;;;;;;;17.38;3.10;;;19.50;99.90;;;;;;5047169;28;20147;-72
2021/11/19 11:24:24;;;;;;;15.13;3.67;;;19.60;99.90;;;;;;5007590;28;20068;-72
2021/11/19 11:27:16;;;;;;;14.57;2.67;;;19.50;99.90;;;;;;5049667;28;20032;-72
2021/11/19 11:30:05;;;;;;;13.35;2.33;;;19.50;99.90;;;;;;5047580;28;20139;-74
2021/11/19 11:32:51;;;;;;;12.35;2.40;;;19.50;99.90;;;;;;5035565;28;20040;-75
2021/11/19 11:35:36;;;;;;;20.27;3.07;;;19.60;99.90;;;;;;5045040;28;20033;-74
2021/11/19 11:38:22;;;;;;;17.15;2.95;;;19.60;99.90;;;;;;5041066;28;20285;-74
2021/11/19 11:41:05;;;;;;;11.80;1.90;;;19.60;99.90;;;;;;5045480;28;20531;-74
2021/11/19 11:43:41;;;;;;;12.38;2.35;;;19.60;99.90;;;;;;5047048;28;20037;-74
2021/11/19 11:46:32;;;;;;;14.27;4.00;;;19.60;99.90;;;;;;5044607;28;20235;-74
2021/11/19 11:49:21;;;;;;;11.05;2.65;;;19.70;99.90;;;;;;5039711;28;20095;-75
2021/11/19 11:52:00;;;;;;;13.93;2.55;;;19.70;99.90;;;;;;5043895;28;20160;-74
2021/11/19 11:54:57;;;;;;;17.17;4.68;;;19.70;99.90;;;;;;5040849;28;20044;-73
2021/11/19 11:57:36;;;;;;;19.80;3.30;;;19.70;99.90;;;;;;5040809;28;20405;-76
2021/11/19 12:00:10;;;;;;;11.15;2.67;;;19.70;99.90;;;;;;5043473;28;20075;-71
2021/11/19 12:02:46;;;;;;;15.90;2.67;;;19.70;99.90;;;;;;5038705;28;20178;-72
2021/11/19 12:05:32;;;;;;;12.70;2.05;;;19.50;99.90;;;;;;5046098;28;20032;-72
2021/11/19 12:08:40;;;;;;;16.42;4.28;;;19.50;99.90;;;;;;5038518;28;20016;-72
2021/11/19 12:11:16;;;;;;;9.02;2.45;;;19.50;99.90;;;;;;5045846;28;20395;-75
2021/11/19 12:14:12;;;;;;;15.25;2.50;;;19.40;99.90;;;;;;5036514;28;20065;-73
2021/11/19 12:17:02;;;;;;;14.55;2.25;;;19.40;99.90;;;;;;5041111;28;20086;-73
2021/11/19 12:19:40;;;;;;;22.23;3.97;;;19.40;99.90;;;;;;5039167;28;20055;-73
2021/11/19 12:22:31;;;;;;;20.02;2.88;;;19.40;99.90;;;;;;5036860;28;20210;-74
2021/11/19 12:25:01;;;;;;;12.00;2.47;;;19.30;99.90;;;;;;5041979;28;20032;-77
2021/11/19 12:27:36;;;;;;;10.00;3.08;;;19.20;99.90;;;;;;5042342;28;20108;-72
2021/11/19 12:30:32;;;;;;;14.30;3.30;;;19.30;99.90;;;;;;5043165;28;20075;-76
2021/11/19 12:33:20;;;;;;;7.97;2.60;;;19.20;99.90;;;;;;5039412;28;20151;-75
2021/11/19 12:36:03;;;;;;;11.07;1.65;;;19.30;99.90;;;;;;5040075;28;20104;-73
2021/11/19 12:38:41;;;;;;;10.02;3.25;;;19.20;99.90;;;;;;5047395;28;20167;-75
2021/11/19 12:41:14;;;;;;;13.68;2.17;;;19.20;99.90;;;;;;5036832;28;20036;-74
2021/11/19 12:43:50;;;;;;;10.63;2.60;;;19.30;99.90;;;;;;5039058;28;20155;-72
2021/11/19 12:46:42;;;;;;;7.57;2.28;;;19.30;99.90;;;;;;5042784;28;20037;-72
2021/11/19 12:49:19;;;;;;;11.70;1.95;;;19.30;99.90;;;;;;5036644;28;20384;-74
2021/11/19 12:51:59;;;;;;;13.73;2.75;;;19.30;99.90;;;;;;5044857;28;20021;-75
2021/11/19 12:54:46;;;;;;;7.32;2.13;;;19.30;99.90;;;;;;5048873;28;20043;-74
2021/11/19 12:57:14;;;;;;;11.65;1.95;;;19.30;99.90;;;;;;5038139;28;20025;-75
2021/11/19 12:59:57;;;;;;;10.07;2.15;;;19.30;99.90;;;;;;5040879;28;20026;-72
2021/11/19 13:02:27;;;;;;;15.52;3.58;;;19.30;99.90;;;;;;5040558;28;20048;-74
2021/11/19 13:05:12;;;;;;;15.23;1.77;;;19.40;99.90;;;;;;5042477;28;20391;-75
2021/11/19 13:07:46;;;;;;;11.70;2.53;;;19.40;99.90;;;;;;5035356;28;20060;-72
2021/11/19 13:10:16;;;;;;;7.45;3.15;;;19.40;99.90;;;;;;5047570;28;20025;-74
2021/11/19 13:13:05;;;;;;;7.53;1.90;;;19.40;99.90;;;;;;5043186;28;20079;-76
2021/11/19 13:15:51;;;;;;;15.07;3.05;;;19.30;99.90;;;;;;5047039;28;20119;-73
2021/11/19 13:18:18;;;;;;;;;;;19.30;99.90;;;;;;5040205;28;20029;-72